sensor_id;sensor_type;location;lat;lon;timestamp;temperature;humidity
21001;DHT22;10658;50.920;12.238;2023-05-10T00:00:31;9.90;99.90
21001;DHT22;10658;50.920;12.238;2023-05-10T00:04:32;9.90;99.90
21001;DHT22;10658;50.920;12.238;2023-05-10T00:08:33;9.90;99.90
21001;DHT22;10658;50.920;12.238;2023-05-10T00:12:34;9.80;99.90
21001;DHT22;10658;50.920;12.238;2023-05-10T00:16:35;9.80;99.90
21001;DHT22;10658;50.920;12.238;2023-05-10T00:20:35;9.80;99.90
21001;DHT22;10658;50.920;12.238;2023-05-10T00:24:36;9.80;99.90
21001;DHT22;10658;50.920;12.238;2023-05-10T00:28:37;9.80;99.90
21001;DHT22;10658;50.920;12.238;2023-05-10T00:32:38;9.80;99.90
21001;DHT22;10658;50.920;12.238;2023-05-10T00:36:38;9.80;99.90
21001;DHT22;10658;50.920;12.238;2023-05-10T00:40:41;9.80;99.90
21001;DHT22;10658;50.920;12.238;2023-05-10T00:44:49;9.70;99.90
21001;DHT22;10658;50.920;12.238;2023-05-10T00:48:50;9.70;99.90
21001;DHT22;10658;50.920;12.238;2023-05-10T00:52:51;9.60;99.90
21001;DHT22;10658;50.920;12.238;2023-05-10T00:56:52;9.40;99.90
21001;DHT22;10658;50.920;12.238;2023-05-10T01:00:54;9.40;99.90
21001;DHT22;10658;50.920;12.238;2023-05-10T01:04:55;9.40;99.90
21001;DHT22;10658;50.920;12.238;2023-05-10T01:08:56;9.10;99.90
21001;DHT22;10658;50.920;12.238;2023-05-10T01:12:59;8.70;99.90
21001;DHT22;10658;50.920;12.238;2023-05-10T01:17:00;8.70;99.90
21001;DHT22;10658;50.920;12.238;2023-05-10T01:21:15;8.80;99.90
21001;DHT22;10658;50.920;12.238;2023-05-10T01:34:12;8.90;99.90
21001;DHT22;10658;50.920;12.238;2023-05-10T01:42:46;8.70;99.90
21001;DHT22;10658;50.920;12.238;2023-05-10T01:46:53;8.70;99.90
21001;DHT22;10658;50.920;12.238;2023-05-10T01:50:56;8.50;99.90
21001;DHT22;10658;50.920;12.238;2023-05-10T01:55:04;8.60;99.90
21001;DHT22;10658;50.920;12.238;2023-05-10T01:59:13;8.70;99.90
21001;DHT22;10658;50.920;12.238;2023-05-10T02:03:18;8.70;99.90
21001;DHT22;10658;50.920;12.238;2023-05-10T02:07:21;8.80;99.90
21001;DHT22;10658;50.920;12.238;2023-05-10T02:11:25;8.60;99.90
21001;DHT22;10658;50.920;12.238;2023-05-10T02:15:26;8.60;99.90
21001;DHT22;10658;50.920;12.238;2023-05-10T02:19:28;8.60;99.90
21001;DHT22;10658;50.920;12.238;2023-05-10T02:23:31;8.60;99.90
21001;DHT22;10658;50.920;12.238;2023-05-10T02:27:33;8.60;99.90
21001;DHT22;10658;50.920;12.238;2023-05-10T02:31:35;8.70;99.90
21001;DHT22;10658;50.920;12.238;2023-05-10T02:35:38;8.60;99.90
21001;DHT22;10658;50.920;12.238;2023-05-10T02:39:39;8.60;99.90
21001;DHT22;10658;50.920;12.238;2023-05-10T02:43:44;8.60;99.90
21001;DHT22;10658;50.920;12.238;2023-05-10T02:47:46;8.60;99.90
21001;DHT22;10658;50.920;12.238;2023-05-10T02:51:51;8.60;99.90
21001;DHT22;10658;50.920;12.238;2023-05-10T02:55:58;8.70;99.90
21001;DHT22;10658;50.920;12.238;2023-05-10T03:00:01;8.70;99.90
21001;DHT22;10658;50.920;12.238;2023-05-10T03:04:01;8.50;99.90
21001;DHT22;10658;50.920;12.238;2023-05-10T03:08:03;8.50;99.90
21001;DHT22;10658;50.920;12.238;2023-05-10T03:16:45;8.60;99.90
21001;DHT22;10658;50.920;12.238;2023-05-10T03:20:49;8.60;99.90
21001;DHT22;10658;50.920;12.238;2023-05-10T03:24:53;8.50;99.90
21001;DHT22;10658;50.920;12.238;2023-05-10T03:28:57;8.40;99.90
21001;DHT22;10658;50.920;12.238;2023-05-10T03:33:07;8.30;99.90
21001;DHT22;10658;50.920;12.238;2023-05-10T03:37:11;7.90;99.90
21001;DHT22;10658;50.920;12.238;2023-05-10T03:41:12;7.90;99.90
21001;DHT22;10658;50.920;12.238;2023-05-10T03:45:13;8.10;99.90
21001;DHT22;10658;50.920;12.238;2023-05-10T03:49:15;8.30;99.90
21001;DHT22;10658;50.920;12.238;2023-05-10T03:53:16;8.50;99.90
21001;DHT22;10658;50.920;12.238;2023-05-10T03:57:17;8.70;99.90
21001;DHT22;10658;50.920;12.238;2023-05-10T04:01:17;8.90;99.90
21001;DHT22;10658;50.920;12.238;2023-05-10T04:05:18;9.10;99.90
21001;DHT22;10658;50.920;12.238;2023-05-10T04:09:19;9.40;99.90
21001;DHT22;10658;50.920;12.238;2023-05-10T04:13:20;9.60;99.90
21001;DHT22;10658;50.920;12.238;2023-05-10T04:17:21;9.90;99.90
21001;DHT22;10658;50.920;12.238;2023-05-10T04:21:22;10.20;99.90
21001;DHT22;10658;50.920;12.238;2023-05-10T04:25:23;10.40;99.90
21001;DHT22;10658;50.920;12.238;2023-05-10T04:29:24;10.70;99.90
21001;DHT22;10658;50.920;12.238;2023-05-10T04:33:24;10.90;99.90
21001;DHT22;10658;50.920;12.238;2023-05-10T04:37:25;11.10;99.90
21001;DHT22;10658;50.920;12.238;2023-05-10T04:41:26;11.10;99.90
21001;DHT22;10658;50.920;12.238;2023-05-10T04:45:28;11.20;99.90
21001;DHT22;10658;50.920;12.238;2023-05-10T04:49:29;11.20;99.90
21001;DHT22;10658;50.920;12.238;2023-05-10T04:53:30;11.30;99.90
21001;DHT22;10658;50.920;12.238;2023-05-10T04:57:31;11.30;99.90
21001;DHT22;10658;50.920;12.238;2023-05-10T05:01:32;11.30;99.90
21001;DHT22;10658;50.920;12.238;2023-05-10T05:05:32;11.40;99.90
21001;DHT22;10658;50.920;12.238;2023-05-10T05:09:33;11.60;99.90
21001;DHT22;10658;50.920;12.238;2023-05-10T05:13:34;11.70;99.90
21001;DHT22;10658;50.920;12.238;2023-05-10T05:17:38;11.90;99.90
21001;DHT22;10658;50.920;12.238;2023-05-10T05:21:39;12.10;99.90
21001;DHT22;10658;50.920;12.238;2023-05-10T05:25:40;12.20;99.90
21001;DHT22;10658;50.920;12.238;2023-05-10T05:29:42;12.50;99.90
21001;DHT22;10658;50.920;12.238;2023-05-10T05:33:43;12.70;99.90
21001;DHT22;10658;50.920;12.238;2023-05-10T05:37:44;12.90;99.90
21001;DHT22;10658;50.920;12.238;2023-05-10T05:41:57;13.00;99.90
21001;DHT22;10658;50.920;12.238;2023-05-10T05:45:58;13.00;99.90
21001;DHT22;10658;50.920;12.238;2023-05-10T05:50:03;13.10;99.90
21001;DHT22;10658;50.920;12.238;2023-05-10T05:54:06;13.20;99.90
21001;DHT22;10658;50.920;12.238;2023-05-10T05:58:06;13.20;99.90
21001;DHT22;10658;50.920;12.238;2023-05-10T06:02:09;13.30;99.90
21001;DHT22;10658;50.920;12.238;2023-05-10T06:06:10;13.40;99.90
21001;DHT22;10658;50.920;12.238;2023-05-10T06:10:11;13.60;99.90
21001;DHT22;10658;50.920;12.238;2023-05-10T06:14:12;13.60;99.90
21001;DHT22;10658;50.920;12.238;2023-05-10T06:18:13;13.70;99.90
21001;DHT22;10658;50.920;12.238;2023-05-10T06:22:14;13.70;99.90
21001;DHT22;10658;50.920;12.238;2023-05-10T06:26:15;13.70;99.90
21001;DHT22;10658;50.920;12.238;2023-05-10T06:30:15;13.70;99.90
21001;DHT22;10658;50.920;12.238;2023-05-10T06:34:16;13.80;99.90
21001;DHT22;10658;50.920;12.238;2023-05-10T06:38:17;13.80;99.90
21001;DHT22;10658;50.920;12.238;2023-05-10T06:42:18;13.70;99.90
21001;DHT22;10658;50.920;12.238;2023-05-10T06:46:21;13.70;99.90
21001;DHT22;10658;50.920;12.238;2023-05-10T06:50:21;13.50;99.90
21001;DHT22;10658;50.920;12.238;2023-05-10T06:54:22;13.40;99.90
21001;DHT22;10658;50.920;12.238;2023-05-10T06:58:23;13.20;99.90
21001;DHT22;10658;50.920;12.238;2023-05-10T07:02:24;13.10;99.90
21001;DHT22;10658;50.920;12.238;2023-05-10T07:06:25;13.00;99.90
21001;DHT22;10658;50.920;12.238;2023-05-10T07:10:26;13.00;99.90
21001;DHT22;10658;50.920;12.238;2023-05-10T07:14:27;12.80;99.90
21001;DHT22;10658;50.920;12.238;2023-05-10T07:18:28;12.70;99.90
21001;DHT22;10658;50.920;12.238;2023-05-10T07:22:29;12.70;99.90
21001;DHT22;10658;50.920;12.238;2023-05-10T07:26:30;12.60;99.90
21001;DHT22;10658;50.920;12.238;2023-05-10T07:30:31;12.70;99.90
21001;DHT22;10658;50.920;12.238;2023-05-10T07:34:31;12.80;99.90
21001;DHT22;10658;50.920;12.238;2023-05-10T07:38:32;12.80;99.90
21001;DHT22;10658;50.920;12.238;2023-05-10T07:42:33;12.80;99.90
21001;DHT22;10658;50.920;12.238;2023-05-10T07:46:34;12.70;99.90
21001;DHT22;10658;50.920;12.238;2023-05-10T07:50:35;12.70;99.90
21001;DHT22;10658;50.920;12.238;2023-05-10T07:54:36;12.70;99.90
21001;DHT22;10658;50.920;12.238;2023-05-10T07:58:36;12.60;99.90
21001;DHT22;10658;50.920;12.238;2023-05-10T08:02:38;12.60;99.90
21001;DHT22;10658;50.920;12.238;2023-05-10T08:06:39;12.60;99.90
21001;DHT22;10658;50.920;12.238;2023-05-10T08:10:40;12.60;99.90
21001;DHT22;10658;50.920;12.238;2023-05-10T08:14:41;12.50;99.90
21001;DHT22;10658;50.920;12.238;2023-05-10T08:18:44;12.50;99.90
21001;DHT22;10658;50.920;12.238;2023-05-10T08:22:46;12.40;99.90
21001;DHT22;10658;50.920;12.238;2023-05-10T08:26:47;12.40;99.90
21001;DHT22;10658;50.920;12.238;2023-05-10T08:30:49;12.50;99.90
21001;DHT22;10658;50.920;12.238;2023-05-10T08:34:50;12.60;99.90
21001;DHT22;10658;50.920;12.238;2023-05-10T08:38:51;12.60;99.90
21001;DHT22;10658;50.920;12.238;2023-05-10T08:43:06;12.70;99.90
21001;DHT22;10658;50.920;12.238;2023-05-10T08:47:10;12.80;99.90
21001;DHT22;10658;50.920;12.238;2023-05-10T08:51:17;13.00;99.90
21001;DHT22;10658;50.920;12.238;2023-05-10T08:55:18;13.10;99.90
21001;DHT22;10658;50.920;12.238;2023-05-10T08:59:19;13.30;99.90
21001;DHT22;10658;50.920;12.238;2023-05-10T09:03:20;13.50;99.90
21001;DHT22;10658;50.920;12.238;2023-05-10T09:07:21;13.80;99.90
21001;DHT22;10658;50.920;12.238;2023-05-10T09:11:22;14.10;99.90
21001;DHT22;10658;50.920;12.238;2023-05-10T09:15:24;14.30;99.90
21001;DHT22;10658;50.920;12.238;2023-05-10T09:19:25;14.60;99.90
21001;DHT22;10658;50.920;12.238;2023-05-10T09:23:26;14.80;99.90
21001;DHT22;10658;50.920;12.238;2023-05-10T09:27:33;14.70;99.90
21001;DHT22;10658;50.920;12.238;2023-05-10T09:31:52;14.60;99.90
21001;DHT22;10658;50.920;12.238;2023-05-10T09:36:06;14.60;99.90
21001;DHT22;10658;50.920;12.238;2023-05-10T09:40:32;14.70;99.90
21001;DHT22;10658;50.920;12.238;2023-05-10T09:44:33;14.70;99.90
21001;DHT22;10658;50.920;12.238;2023-05-10T09:48:34;14.40;99.90
21001;DHT22;10658;50.920;12.238;2023-05-10T09:52:52;14.30;99.90
21001;DHT22;10658;50.920;12.238;2023-05-10T09:56:55;14.20;99.90
21001;DHT22;10658;50.920;12.238;2023-05-10T10:00:56;14.20;99.90
21001;DHT22;10658;50.920;12.238;2023-05-10T10:05:00;13.80;99.90
21001;DHT22;10658;50.920;12.238;2023-05-10T10:09:01;13.90;99.90
21001;DHT22;10658;50.920;12.238;2023-05-10T10:13:03;14.10;99.90
21001;DHT22;10658;50.920;12.238;2023-05-10T10:17:06;14.20;99.90
21001;DHT22;10658;50.920;12.238;2023-05-10T10:21:09;14.30;99.90
21001;DHT22;10658;50.920;12.238;2023-05-10T10:25:12;14.40;99.90
21001;DHT22;10658;50.920;12.238;2023-05-10T10:29:44;14.60;99.90
21001;DHT22;10658;50.920;12.238;2023-05-10T10:34:05;14.90;99.90
21001;DHT22;10658;50.920;12.238;2023-05-10T10:38:08;15.10;99.90
21001;DHT22;10658;50.920;12.238;2023-05-10T10:42:09;15.40;99.90
21001;DHT22;10658;50.920;12.238;2023-05-10T10:46:16;15.50;99.90
21001;DHT22;10658;50.920;12.238;2023-05-10T10:50:18;15.60;99.90
21001;DHT22;10658;50.920;12.238;2023-05-10T10:54:27;15.40;99.90
21001;DHT22;10658;50.920;12.238;2023-05-10T10:58:30;15.80;99.90
21001;DHT22;10658;50.920;12.238;2023-05-10T11:02:44;15.90;99.90
21001;DHT22;10658;50.920;12.238;2023-05-10T11:07:20;15.90;99.90
21001;DHT22;10658;50.920;12.238;2023-05-10T11:11:22;16.10;99.90
21001;DHT22;10658;50.920;12.238;2023-05-10T11:15:29;16.30;99.90
21001;DHT22;10658;50.920;12.238;2023-05-10T11:19:32;16.40;99.90
21001;DHT22;10658;50.920;12.238;2023-05-10T11:27:42;16.50;99.90
21001;DHT22;10658;50.920;12.238;2023-05-10T11:31:44;16.20;99.90
21001;DHT22;10658;50.920;12.238;2023-05-10T11:35:48;16.40;99.90
21001;DHT22;10658;50.920;12.238;2023-05-10T11:39:48;16.50;99.90
21001;DHT22;10658;50.920;12.238;2023-05-10T11:44:59;16.20;99.90
21001;DHT22;10658;50.920;12.238;2023-05-10T11:54:30;16.10;99.90
21001;DHT22;10658;50.920;12.238;2023-05-10T11:58:32;16.10;99.90
21001;DHT22;10658;50.920;12.238;2023-05-10T12:02:33;16.20;99.90
21001;DHT22;10658;50.920;12.238;2023-05-10T12:06:39;16.40;99.90
21001;DHT22;10658;50.920;12.238;2023-05-10T12:10:41;16.60;99.90
21001;DHT22;10658;50.920;12.238;2023-05-10T12:14:42;16.50;99.90
21001;DHT22;10658;50.920;12.238;2023-05-10T12:18:43;16.40;99.90
21001;DHT22;10658;50.920;12.238;2023-05-10T12:22:52;16.60;99.90
21001;DHT22;10658;50.920;12.238;2023-05-10T12:26:53;16.70;99.90
21001;DHT22;10658;50.920;12.238;2023-05-10T12:30:53;16.70;99.90
21001;DHT22;10658;50.920;12.238;2023-05-10T12:34:55;16.70;99.90
21001;DHT22;10658;50.920;12.238;2023-05-10T12:39:02;16.80;99.90
21001;DHT22;10658;50.920;12.238;2023-05-10T12:43:03;16.80;99.90
21001;DHT22;10658;50.920;12.238;2023-05-10T12:47:04;16.90;99.90
21001;DHT22;10658;50.920;12.238;2023-05-10T12:51:06;16.90;99.90
21001;DHT22;10658;50.920;12.238;2023-05-10T12:55:12;16.90;99.90
21001;DHT22;10658;50.920;12.238;2023-05-10T12:59:13;16.80;99.90
21001;DHT22;10658;50.920;12.238;2023-05-10T13:03:14;16.70;99.90
21001;DHT22;10658;50.920;12.238;2023-05-10T13:07:16;16.70;99.90
21001;DHT22;10658;50.920;12.238;2023-05-10T13:11:17;16.70;99.90
21001;DHT22;10658;50.920;12.238;2023-05-10T13:15:20;16.70;99.90
21001;DHT22;10658;50.920;12.238;2023-05-10T13:19:21;16.70;99.90
21001;DHT22;10658;50.920;12.238;2023-05-10T13:23:22;16.70;99.90
21001;DHT22;10658;50.920;12.238;2023-05-10T13:27:23;16.80;99.90
21001;DHT22;10658;50.920;12.238;2023-05-10T13:31:23;16.90;99.90
21001;DHT22;10658;50.920;12.238;2023-05-10T13:35:48;16.90;99.90
21001;DHT22;10658;50.920;12.238;2023-05-10T13:39:49;17.00;99.90
21001;DHT22;10658;50.920;12.238;2023-05-10T13:43:50;17.10;99.90
21001;DHT22;10658;50.920;12.238;2023-05-10T13:47:51;17.00;99.90
21001;DHT22;10658;50.920;12.238;2023-05-10T13:51:52;17.00;99.90
21001;DHT22;10658;50.920;12.238;2023-05-10T13:55:53;16.90;99.90
21001;DHT22;10658;50.920;12.238;2023-05-10T13:59:54;16.80;99.90
21001;DHT22;10658;50.920;12.238;2023-05-10T14:03:54;16.70;99.90
21001;DHT22;10658;50.920;12.238;2023-05-10T14:07:55;16.60;99.90
21001;DHT22;10658;50.920;12.238;2023-05-10T14:11:56;16.50;99.90
21001;DHT22;10658;50.920;12.238;2023-05-10T14:15:58;16.40;99.90
21001;DHT22;10658;50.920;12.238;2023-05-10T14:20:00;16.30;99.90
21001;DHT22;10658;50.920;12.238;2023-05-10T14:24:01;16.20;99.90
21001;DHT22;10658;50.920;12.238;2023-05-10T14:28:02;16.10;99.90
21001;DHT22;10658;50.920;12.238;2023-05-10T14:32:03;16.00;99.90
21001;DHT22;10658;50.920;12.238;2023-05-10T14:36:04;16.00;99.90
21001;DHT22;10658;50.920;12.238;2023-05-10T14:40:06;15.90;99.90
21001;DHT22;10658;50.920;12.238;2023-05-10T14:44:07;15.80;99.90
21001;DHT22;10658;50.920;12.238;2023-05-10T14:48:08;15.60;99.90
21001;DHT22;10658;50.920;12.238;2023-05-10T14:52:12;15.30;99.90
21001;DHT22;10658;50.920;12.238;2023-05-10T14:56:15;15.00;99.90
21001;DHT22;10658;50.920;12.238;2023-05-10T15:00:16;14.90;99.90
21001;DHT22;10658;50.920;12.238;2023-05-10T15:04:17;15.00;99.90
21001;DHT22;10658;50.920;12.238;2023-05-10T15:08:17;15.10;99.90
21001;DHT22;10658;50.920;12.238;2023-05-10T15:12:18;15.20;99.90
21001;DHT22;10658;50.920;12.238;2023-05-10T15:16:19;15.30;99.90
21001;DHT22;10658;50.920;12.238;2023-05-10T15:20:20;15.50;99.90
21001;DHT22;10658;50.920;12.238;2023-05-10T15:24:21;15.50;99.90
21001;DHT22;10658;50.920;12.238;2023-05-10T15:28:22;15.60;99.90
21001;DHT22;10658;50.920;12.238;2023-05-10T15:32:23;15.80;99.90
21001;DHT22;10658;50.920;12.238;2023-05-10T15:36:24;15.80;99.90
21001;DHT22;10658;50.920;12.238;2023-05-10T15:40:24;15.80;99.90
21001;DHT22;10658;50.920;12.238;2023-05-10T15:44:25;15.90;99.90
21001;DHT22;10658;50.920;12.238;2023-05-10T15:48:26;15.90;99.90
21001;DHT22;10658;50.920;12.238;2023-05-10T15:52:27;15.90;99.90
21001;DHT22;10658;50.920;12.238;2023-05-10T15:56:28;16.00;99.90
21001;DHT22;10658;50.920;12.238;2023-05-10T16:00:29;16.00;99.90
21001;DHT22;10658;50.920;12.238;2023-05-10T16:04:30;16.10;99.90
21001;DHT22;10658;50.920;12.238;2023-05-10T16:08:31;16.10;99.90
21001;DHT22;10658;50.920;12.238;2023-05-10T16:12:33;16.20;99.90
21001;DHT22;10658;50.920;12.238;2023-05-10T16:16:34;16.20;99.90
21001;DHT22;10658;50.920;12.238;2023-05-10T16:20:35;16.30;99.90
21001;DHT22;10658;50.920;12.238;2023-05-10T16:24:36;16.30;99.90
21001;DHT22;10658;50.920;12.238;2023-05-10T16:28:37;16.40;99.90
21001;DHT22;10658;50.920;12.238;2023-05-10T16:32:39;16.40;99.90
21001;DHT22;10658;50.920;12.238;2023-05-10T16:36:40;16.40;99.90
21001;DHT22;10658;50.920;12.238;2023-05-10T16:40:41;16.40;99.90
21001;DHT22;10658;50.920;12.238;2023-05-10T16:44:41;16.60;99.90
21001;DHT22;10658;50.920;12.238;2023-05-10T16:48:42;16.60;99.90
21001;DHT22;10658;50.920;12.238;2023-05-10T16:52:43;16.50;99.90
21001;DHT22;10658;50.920;12.238;2023-05-10T16:56:44;16.40;99.90
21001;DHT22;10658;50.920;12.238;2023-05-10T17:00:45;16.30;99.90
21001;DHT22;10658;50.920;12.238;2023-05-10T17:04:46;16.20;99.90
21001;DHT22;10658;50.920;12.238;2023-05-10T17:08:47;16.10;99.90
21001;DHT22;10658;50.920;12.238;2023-05-10T17:12:48;16.00;99.90
21001;DHT22;10658;50.920;12.238;2023-05-10T17:16:49;15.90;99.90
21001;DHT22;10658;50.920;12.238;2023-05-10T17:20:52;15.80;99.90
21001;DHT22;10658;50.920;12.238;2023-05-10T17:24:52;15.80;99.90
21001;DHT22;10658;50.920;12.238;2023-05-10T17:28:53;15.70;99.90
21001;DHT22;10658;50.920;12.238;2023-05-10T17:32:54;15.70;99.90
21001;DHT22;10658;50.920;12.238;2023-05-10T17:36:56;15.70;99.90
21001;DHT22;10658;50.920;12.238;2023-05-10T17:40:56;15.70;99.90
21001;DHT22;10658;50.920;12.238;2023-05-10T17:44:57;15.60;99.90
21001;DHT22;10658;50.920;12.238;2023-05-10T17:48:58;15.60;99.90
21001;DHT22;10658;50.920;12.238;2023-05-10T17:52:59;15.60;99.90
21001;DHT22;10658;50.920;12.238;2023-05-10T17:57:00;15.60;99.90
21001;DHT22;10658;50.920;12.238;2023-05-10T18:01:01;15.50;99.90
21001;DHT22;10658;50.920;12.238;2023-05-10T18:05:03;15.40;99.90
21001;DHT22;10658;50.920;12.238;2023-05-10T18:09:04;15.30;99.90
21001;DHT22;10658;50.920;12.238;2023-05-10T18:13:06;15.20;99.90
21001;DHT22;10658;50.920;12.238;2023-05-10T18:17:08;15.10;99.90
21001;DHT22;10658;50.920;12.238;2023-05-10T18:21:08;15.00;99.90
21001;DHT22;10658;50.920;12.238;2023-05-10T18:25:09;14.90;99.90
21001;DHT22;10658;50.920;12.238;2023-05-10T18:29:10;14.90;99.90
21001;DHT22;10658;50.920;12.238;2023-05-10T18:33:11;14.90;99.90
21001;DHT22;10658;50.920;12.238;2023-05-10T18:37:12;14.90;99.90
21001;DHT22;10658;50.920;12.238;2023-05-10T18:41:13;14.90;99.90
21001;DHT22;10658;50.920;12.238;2023-05-10T18:45:15;14.90;99.90
21001;DHT22;10658;50.920;12.238;2023-05-10T18:49:16;14.90;99.90
21001;DHT22;10658;50.920;12.238;2023-05-10T18:53:16;14.80;99.90
21001;DHT22;10658;50.920;12.238;2023-05-10T18:57:17;14.90;99.90
21001;DHT22;10658;50.920;12.238;2023-05-10T19:01:40;14.80;99.90
21001;DHT22;10658;50.920;12.238;2023-05-10T19:05:41;14.80;99.90
21001;DHT22;10658;50.920;12.238;2023-05-10T19:09:41;14.80;99.90
21001;DHT22;10658;50.920;12.238;2023-05-10T19:13:42;14.80;99.90
21001;DHT22;10658;50.920;12.238;2023-05-10T19:17:44;14.80;99.90
21001;DHT22;10658;50.920;12.238;2023-05-10T19:21:46;14.80;99.90
21001;DHT22;10658;50.920;12.238;2023-05-10T19:25:46;14.70;99.90
21001;DHT22;10658;50.920;12.238;2023-05-10T19:29:47;14.70;99.90
21001;DHT22;10658;50.920;12.238;2023-05-10T19:33:48;14.70;99.90
21001;DHT22;10658;50.920;12.238;2023-05-10T19:37:49;14.60;99.90
21001;DHT22;10658;50.920;12.238;2023-05-10T19:41:50;14.60;99.90
21001;DHT22;10658;50.920;12.238;2023-05-10T19:45:51;14.60;99.90
21001;DHT22;10658;50.920;12.238;2023-05-10T19:49:54;14.60;99.90
21001;DHT22;10658;50.920;12.238;2023-05-10T19:53:55;14.60;99.90
21001;DHT22;10658;50.920;12.238;2023-05-10T19:57:57;14.50;99.90
21001;DHT22;10658;50.920;12.238;2023-05-10T20:01:59;14.40;99.90
21001;DHT22;10658;50.920;12.238;2023-05-10T20:06:01;14.50;99.90
21001;DHT22;10658;50.920;12.238;2023-05-10T20:10:02;14.40;99.90
21001;DHT22;10658;50.920;12.238;2023-05-10T20:14:03;14.40;99.90
21001;DHT22;10658;50.920;12.238;2023-05-10T20:18:04;14.40;99.90
21001;DHT22;10658;50.920;12.238;2023-05-10T20:22:05;14.30;99.90
21001;DHT22;10658;50.920;12.238;2023-05-10T20:26:08;14.20;99.90
21001;DHT22;10658;50.920;12.238;2023-05-10T20:30:09;14.20;99.90
21001;DHT22;10658;50.920;12.238;2023-05-10T20:34:10;14.30;99.90
21001;DHT22;10658;50.920;12.238;2023-05-10T20:38:11;14.30;99.90
21001;DHT22;10658;50.920;12.238;2023-05-10T20:42:12;14.30;99.90
21001;DHT22;10658;50.920;12.238;2023-05-10T20:46:13;14.30;99.90
21001;DHT22;10658;50.920;12.238;2023-05-10T20:50:13;14.20;99.90
21001;DHT22;10658;50.920;12.238;2023-05-10T20:54:14;14.20;99.90
21001;DHT22;10658;50.920;12.238;2023-05-10T20:58:15;14.20;99.90
21001;DHT22;10658;50.920;12.238;2023-05-10T21:02:16;14.20;99.90
21001;DHT22;10658;50.920;12.238;2023-05-10T21:06:17;14.10;99.90
21001;DHT22;10658;50.920;12.238;2023-05-10T21:10:17;14.10;99.90
21001;DHT22;10658;50.920;12.238;2023-05-10T21:14:19;14.10;99.90
21001;DHT22;10658;50.920;12.238;2023-05-10T21:18:20;14.10;99.90
21001;DHT22;10658;50.920;12.238;2023-05-10T21:22:21;14.10;99.90
21001;DHT22;10658;50.920;12.238;2023-05-10T21:26:22;14.20;99.90
21001;DHT22;10658;50.920;12.238;2023-05-10T21:30:23;14.10;99.90
21001;DHT22;10658;50.920;12.238;2023-05-10T21:34:26;14.10;99.90
21001;DHT22;10658;50.920;12.238;2023-05-10T21:38:33;14.10;99.90
21001;DHT22;10658;50.920;12.238;2023-05-10T21:42:33;14.10;99.90
21001;DHT22;10658;50.920;12.238;2023-05-10T21:46:34;14.10;99.90
21001;DHT22;10658;50.920;12.238;2023-05-10T21:50:35;14.10;99.90
21001;DHT22;10658;50.920;12.238;2023-05-10T21:54:36;14.10;99.90
21001;DHT22;10658;50.920;12.238;2023-05-10T21:58:37;14.10;99.90
21001;DHT22;10658;50.920;12.238;2023-05-10T22:02:38;14.10;99.90
21001;DHT22;10658;50.920;12.238;2023-05-10T22:10:52;14.00;99.90
21001;DHT22;10658;50.920;12.238;2023-05-10T22:14:53;14.10;99.90
21001;DHT22;10658;50.920;12.238;2023-05-10T22:18:54;14.10;99.90
21001;DHT22;10658;50.920;12.238;2023-05-10T22:22:55;14.00;99.90
21001;DHT22;10658;50.920;12.238;2023-05-10T22:26:55;14.10;99.90
21001;DHT22;10658;50.920;12.238;2023-05-10T22:30:56;13.90;99.90
21001;DHT22;10658;50.920;12.238;2023-05-10T22:34:57;14.00;99.90
21001;DHT22;10658;50.920;12.238;2023-05-10T22:38:58;13.80;99.90
21001;DHT22;10658;50.920;12.238;2023-05-10T22:42:59;13.70;99.90
21001;DHT22;10658;50.920;12.238;2023-05-10T22:46:59;13.70;99.90
21001;DHT22;10658;50.920;12.238;2023-05-10T22:51:00;13.60;99.90
21001;DHT22;10658;50.920;12.238;2023-05-10T22:55:01;13.60;99.90
21001;DHT22;10658;50.920;12.238;2023-05-10T22:59:02;13.60;99.90
21001;DHT22;10658;50.920;12.238;2023-05-10T23:03:04;13.50;99.90
21001;DHT22;10658;50.920;12.238;2023-05-10T23:07:06;13.40;99.90
21001;DHT22;10658;50.920;12.238;2023-05-10T23:11:07;13.40;99.90
21001;DHT22;10658;50.920;12.238;2023-05-10T23:15:08;13.40;99.90
21001;DHT22;10658;50.920;12.238;2023-05-10T23:19:09;13.30;99.90
21001;DHT22;10658;50.920;12.238;2023-05-10T23:23:10;13.30;99.90
21001;DHT22;10658;50.920;12.238;2023-05-10T23:27:10;13.20;99.90
21001;DHT22;10658;50.920;12.238;2023-05-10T23:31:11;13.20;99.90
21001;DHT22;10658;50.920;12.238;2023-05-10T23:35:12;13.10;99.90
21001;DHT22;10658;50.920;12.238;2023-05-10T23:39:13;13.10;99.90
21001;DHT22;10658;50.920;12.238;2023-05-10T23:43:14;13.10;99.90
21001;DHT22;10658;50.920;12.238;2023-05-10T23:47:15;13.10;99.90
21001;DHT22;10658;50.920;12.238;2023-05-10T23:51:16;13.20;99.90
21001;DHT22;10658;50.920;12.238;2023-05-10T23:55:17;13.30;99.90
21001;DHT22;10658;50.920;12.238;2023-05-10T23:59:18;13.30;99.90
